Time,TemperatureF,DewpointF,PressureIn,WindDirection,WindDirectionDegrees,WindSpeedMPH,WindSpeedGustMPH,Humidity,HourlyPrecipIn,Conditions,Clouds,dailyrainin,SoftwareType,DateUTC
2013-01-25 00:14:00,21.5,11.0,30.39,East,85,4.0,-999.0,63,-99.99,,,0.00,weatherlink.com 1.10,2013-01-25 05:14:00,
2013-01-25 00:29:00,21.5,10.0,30.38,East,98,4.0,-999.0,62,-99.99,,,0.00,weatherlink.com 1.10,2013-01-25 05:29:00,
2013-01-25 00:44:00,21.5,9.0,30.39,SE,130,2.0,-999.0,60,-99.99,,,0.00,weatherlink.com 1.10,2013-01-25 05:44:00,
2013-01-25 00:59:00,21.6,9.0,30.38,ESE,113,4.0,-999.0,59,-99.99,,,0.00,weatherlink.com 1.10,2013-01-25 05:59:00,
2013-01-25 01:14:00,21.7,9.0,30.37,ESE,119,7.0,-999.0,59,-99.99,,,0.00,weatherlink.com 1.10,2013-01-25 06:14:00,
2013-01-25 01:29:00,21.8,9.0,30.38,SSE,153,5.0,-999.0,58,-99.99,,,0.00,weatherlink.com 1.10,2013-01-25 06:29:00,
2013-01-25 01:44:00,21.8,9.0,30.37,ESE,115,2.0,-999.0,59,-99.99,,,0.00,weatherlink.com 1.10,2013-01-25 06:44:00,
2013-01-25 01:59:00,21.8,9.0,30.36,SE,132,1.0,-999.0,58,-99.99,,,0.00,weatherlink.com 1.10,2013-01-25 06:59:00,
2013-01-25 02:14:00,21.8,9.0,30.34,East,98,6.0,-999.0,59,-99.99,,,0.00,weatherlink.com 1.10,2013-01-25 07:14:00,
2013-01-25 02:29:00,21.8,9.0,30.35,SSE,148,5.0,-999.0,58,-99.99,,,0.00,weatherlink.com 1.10,2013-01-25 07:29:00,
2013-01-25 02:44:00,21.9,9.0,30.34,SSE,147,1.0,-999.0,58,-99.99,,,0.00,weatherlink.com 1.10,2013-01-25 07:44:00,
2013-01-25 02:59:00,22.0,9.0,30.33,SSE,160,4.0,-999.0,58,-99.99,,,0.00,weatherlink.com 1.10,2013-01-25 07:59:00,
2013-01-25 03:14:00,22.1,9.0,30.32,SE,130,4.0,-999.0,58,-99.99,,,0.00,weatherlink.com 1.10,2013-01-25 08:14:00,
2013-01-25 03:29:00,22.0,9.0,30.32,SSE,152,4.0,-999.0,58,-99.99,,,0.00,weatherlink.com 1.10,2013-01-25 08:29:00,
2013-01-25 03:44:00,22.1,9.0,30.30,SE,125,6.0,-999.0,57,-99.99,,,0.00,weatherlink.com 1.10,2013-01-25 08:44:00,
2013-01-25 03:59:00,22.1,9.0,30.28,ESE,103,6.0,-999.0,57,-99.99,,,0.00,weatherlink.com 1.10,2013-01-25 08:59:00,
2013-01-25 04:14:00,22.1,9.0,30.27,SE,132,1.0,-999.0,57,-99.99,,,0.00,weatherlink.com 1.10,2013-01-25 09:14:00,
2013-01-25 04:29:00,22.1,9.0,30.25,ESE,113,8.0,-999.0,57,-99.99,,,0.00,weatherlink.com 1.10,2013-01-25 09:29:00,
2013-01-25 04:44:00,22.1,9.0,30.23,ESE,113,5.0,-999.0,57,-99.99,,,0.00,weatherlink.com 1.10,2013-01-25 09:44:00,
2013-01-25 04:59:00,22.1,9.0,30.22,SE,144,7.0,-999.0,57,-99.99,,,0.00,weatherlink.com 1.10,2013-01-25 09:59:00,
2013-01-25 05:14:00,22.3,9.0,30.21,SE,134,6.0,-999.0,57,-99.99,,,0.00,weatherlink.com 1.10,2013-01-25 10:14:00,
2013-01-25 05:29:00,22.2,9.0,30.21,SE,129,9.0,-999.0,58,-99.99,,,0.00,weatherlink.com 1.10,2013-01-25 10:29:00,
2013-01-25 05:44:00,22.4,9.0,30.21,SE,140,9.0,-999.0,56,-99.99,,,0.00,weatherlink.com 1.10,2013-01-25 10:44:00,
2013-01-25 05:59:00,22.4,9.0,30.21,SE,137,7.0,-999.0,56,-99.99,,,0.00,weatherlink.com 1.10,2013-01-25 10:59:00,
2013-01-25 06:14:00,22.3,10.0,30.20,SE,138,8.0,-999.0,59,-99.99,,,0.00,weatherlink.com 1.10,2013-01-25 11:14:00,
2013-01-25 06:29:00,21.3,12.0,30.19,SSE,153,6.0,-999.0,68,-99.99,,,0.00,weatherlink.com 1.10,2013-01-25 11:29:00,
2013-01-25 06:44:00,20.4,14.0,30.19,SSE,167,4.0,-999.0,77,-99.99,,,0.00,weatherlink.com 1.10,2013-01-25 11:44:00,
2013-01-25 06:59:00,19.9,16.0,30.19,SE,138,0.0,-999.0,83,-99.99,,,0.00,weatherlink.com 1.10,2013-01-25 11:59:00,
2013-01-25 07:14:00,19.5,16.0,30.18,South,185,1.0,-999.0,86,-99.99,,,0.00,weatherlink.com 1.10,2013-01-25 12:14:00,
2013-01-25 07:29:00,19.3,16.0,30.17,South,176,0.0,-999.0,88,-99.99,,,0.00,weatherlink.com 1.10,2013-01-25 12:29:00,
2013-01-25 07:44:00,19.3,17.0,30.18,South,176,0.0,-999.0,89,-99.99,,,0.00,weatherlink.com 1.10,2013-01-25 12:44:00,
2013-01-25 07:59:00,19.2,17.0,30.17,South,176,0.0,-999.0,89,-99.99,,,0.00,weatherlink.com 1.10,2013-01-25 12:59:00,
2013-01-25 08:15:00,19.4,17.0,30.16,South,176,1.0,-999.0,90,-99.99,,,0.00,weatherlink.com 1.10,2013-01-25 13:15:00,
2013-01-25 08:30:00,19.5,17.0,30.16,South,176,1.0,-999.0,90,-99.99,,,0.00,weatherlink.com 1.10,2013-01-25 13:30:00,
2013-01-25 08:45:00,19.8,17.0,30.16,South,176,0.0,-999.0,90,-99.99,,,0.00,weatherlink.com 1.10,2013-01-25 13:45:00,
2013-01-25 09:00:00,19.9,18.0,30.16,South,176,1.0,-999.0,90,-99.99,,,0.00,weatherlink.com 1.10,2013-01-25 14:00:00,
2013-01-25 09:15:00,20.1,17.0,30.17,South,176,0.0,-999.0,89,-99.99,,,0.00,weatherlink.com 1.10,2013-01-25 14:15:00,
2013-01-25 09:30:00,20.0,17.0,30.18,South,176,0.0,-999.0,89,-99.99,,,0.00,weatherlink.com 1.10,2013-01-25 14:30:00,
2013-01-25 09:45:00,20.2,18.0,30.17,South,176,2.0,-999.0,89,-99.99,,,0.00,weatherlink.com 1.10,2013-01-25 14:45:00,
2013-01-25 10:00:00,20.6,18.0,30.15,South,174,6.0,-999.0,89,-99.99,,,0.00,weatherlink.com 1.10,2013-01-25 15:00:00,
2013-01-25 10:15:00,20.7,18.0,30.14,South,174,1.0,-999.0,89,-99.99,,,0.00,weatherlink.com 1.10,2013-01-25 15:15:00,
2013-01-25 10:30:00,21.1,18.0,30.16,South,174,2.0,-999.0,88,-99.99,,,0.00,weatherlink.com 1.10,2013-01-25 15:30:00,
2013-01-25 10:45:00,21.5,19.0,30.15,SSW,193,5.0,-999.0,88,-99.99,,,0.00,weatherlink.com 1.10,2013-01-25 15:45:00,
2013-01-25 11:00:00,21.7,18.0,30.15,SSW,192,4.0,-999.0,87,-99.99,,,0.00,weatherlink.com 1.10,2013-01-25 16:00:00,
2013-01-25 11:15:00,22.0,19.0,30.14,SSW,198,7.0,-999.0,87,-99.99,,,0.00,weatherlink.com 1.10,2013-01-25 16:15:00,
2013-01-25 11:30:00,22.1,19.0,30.14,SSW,201,5.0,-999.0,86,-99.99,,,0.00,weatherlink.com 1.10,2013-01-25 16:30:00,
2013-01-25 11:45:00,22.5,19.0,30.13,SSW,202,9.0,-999.0,85,-99.99,,,0.00,weatherlink.com 1.10,2013-01-25 16:45:00,
2013-01-25 12:00:00,22.5,19.0,30.13,SW,234,9.0,-999.0,85,-99.99,,,0.00,weatherlink.com 1.10,2013-01-25 17:00:00,
2013-01-25 12:15:00,22.8,19.0,30.12,SSW,205,8.0,-999.0,84,-99.99,,,0.00,weatherlink.com 1.10,2013-01-25 17:15:00,
2013-01-25 12:30:00,23.1,19.0,30.11,SW,219,7.0,-999.0,84,-99.99,,,0.00,weatherlink.com 1.10,2013-01-25 17:30:00,
2013-01-25 12:45:00,23.4,19.0,30.10,SW,234,10.0,-999.0,83,-99.99,,,0.00,weatherlink.com 1.10,2013-01-25 17:45:00,
2013-01-25 13:00:00,23.8,19.0,30.09,WSW,244,7.0,-999.0,82,-99.99,,,0.00,weatherlink.com 1.10,2013-01-25 18:00:00,
2013-01-25 13:15:00,24.2,19.0,30.09,WSW,247,9.0,-999.0,82,-99.99,,,0.00,weatherlink.com 1.10,2013-01-25 18:15:00,
2013-01-25 13:30:00,24.5,20.0,30.08,WSW,250,2.0,-999.0,83,-99.99,,,0.00,weatherlink.com 1.10,2013-01-25 18:30:00,
2013-01-25 13:45:00,24.8,20.0,30.07,WSW,252,11.0,-999.0,82,-99.99,,,0.00,weatherlink.com 1.10,2013-01-25 18:45:00,
2013-01-25 14:00:00,25.0,20.0,30.07,WSW,237,12.0,-999.0,81,-99.99,,,0.00,weatherlink.com 1.10,2013-01-25 19:00:00,
2013-01-25 14:15:00,25.2,20.0,30.06,SW,226,10.0,-999.0,81,-99.99,,,0.00,weatherlink.com 1.10,2013-01-25 19:15:00,
2013-01-25 14:30:00,25.5,20.0,30.05,WSW,252,6.0,-999.0,80,-99.99,,,0.00,weatherlink.com 1.10,2013-01-25 19:30:00,
2013-01-25 14:45:00,25.8,20.0,30.05,SW,236,9.0,-999.0,80,-99.99,,,0.00,weatherlink.com 1.10,2013-01-25 19:45:00,
2013-01-25 15:00:00,26.1,20.0,30.04,WSW,242,8.0,-999.0,79,-99.99,,,0.00,weatherlink.com 1.10,2013-01-25 20:00:00,
2013-01-25 15:15:00,26.4,21.0,30.05,WSW,244,7.0,-999.0,79,-99.99,,,0.00,weatherlink.com 1.10,2013-01-25 20:15:00,
2013-01-25 15:30:00,26.6,21.0,30.06,WSW,253,10.0,-999.0,79,-99.99,,,0.00,weatherlink.com 1.10,2013-01-25 20:30:00,
2013-01-25 15:45:00,26.8,21.0,30.06,WSW,240,9.0,-999.0,79,-99.99,,,0.00,weatherlink.com 1.10,2013-01-25 20:45:00,
2013-01-25 16:00:00,26.9,21.0,30.06,WSW,246,8.0,-999.0,79,-99.99,,,0.00,weatherlink.com 1.10,2013-01-25 21:00:00,
2013-01-25 16:15:00,27.2,22.0,30.06,WSW,254,8.0,-999.0,79,-99.99,,,0.00,weatherlink.com 1.10,2013-01-25 21:15:00,
2013-01-25 16:30:00,27.4,22.0,30.06,WSW,241,9.0,-999.0,79,-99.99,,,0.00,weatherlink.com 1.10,2013-01-25 21:30:00,
2013-01-25 16:45:00,27.6,22.0,30.06,WSW,247,12.0,-999.0,79,-99.99,,,0.00,weatherlink.com 1.10,2013-01-25 21:45:00,
2013-01-25 17:00:00,27.8,22.0,30.06,SW,233,8.0,-999.0,80,-99.99,,,0.00,weatherlink.com 1.10,2013-01-25 22:00:00,
2013-01-25 17:15:00,27.9,23.0,30.05,SW,231,9.0,-999.0,80,-99.99,,,0.00,weatherlink.com 1.10,2013-01-25 22:15:00,
2013-01-25 17:30:00,28.1,23.0,30.05,WSW,239,6.0,-999.0,80,-99.99,,,0.00,weatherlink.com 1.10,2013-01-25 22:30:00,
2013-01-25 17:45:00,27.6,22.0,30.05,SW,223,8.0,-999.0,80,-99.99,,,0.00,weatherlink.com 1.10,2013-01-25 22:45:00,
2013-01-25 18:01:00,26.3,21.0,30.04,SSW,213,7.0,-999.0,80,-99.99,,,0.00,weatherlink.com 1.10,2013-01-25 23:01:00,
2013-01-25 18:16:00,25.1,20.0,30.05,SW,218,4.0,-999.0,81,-99.99,,,0.00,weatherlink.com 1.10,2013-01-25 23:16:00,
2013-01-25 18:31:00,24.3,20.0,30.06,SW,218,3.0,-999.0,82,-99.99,,,0.00,weatherlink.com 1.10,2013-01-25 23:31:00,
2013-01-25 18:46:00,22.7,18.0,30.06,SW,218,1.0,-999.0,82,-99.99,,,0.00,weatherlink.com 1.10,2013-01-25 23:46:00,
2013-01-25 19:01:00,21.4,17.0,30.07,SW,218,0.0,-999.0,84,-99.99,,,0.00,weatherlink.com 1.10,2013-01-26 00:01:00,
2013-01-25 19:16:00,20.5,17.0,30.07,SW,218,0.0,-999.0,85,-99.99,,,0.00,weatherlink.com 1.10,2013-01-26 00:16:00,
2013-01-25 19:31:00,19.5,16.0,30.07,SW,218,2.0,-999.0,86,-99.99,,,0.00,weatherlink.com 1.10,2013-01-26 00:31:00,
2013-01-25 19:46:00,17.9,15.0,30.08,SW,218,2.0,-999.0,87,-99.99,,,0.00,weatherlink.com 1.10,2013-01-26 00:46:00,
2013-01-25 20:01:00,19.5,17.0,30.08,SW,218,0.0,-999.0,89,-99.99,,,0.00,weatherlink.com 1.10,2013-01-26 01:01:00,
2013-01-25 20:16:00,19.6,17.0,30.08,SW,218,0.0,-999.0,88,-99.99,,,0.00,weatherlink.com 1.10,2013-01-26 01:16:00,
2013-01-25 20:31:00,19.6,17.0,30.08,SW,218,0.0,-999.0,88,-99.99,,,0.00,weatherlink.com 1.10,2013-01-26 01:31:00,
2013-01-25 20:46:00,19.2,16.0,30.08,SW,218,2.0,-999.0,87,-99.99,,,0.00,weatherlink.com 1.10,2013-01-26 01:46:00,
2013-01-25 21:01:00,19.6,17.0,30.08,SW,218,2.0,-999.0,89,-99.99,,,0.00,weatherlink.com 1.10,2013-01-26 02:01:00,
2013-01-25 21:16:00,21.2,18.0,30.07,SW,218,1.0,-999.0,88,-99.99,,,0.00,weatherlink.com 1.10,2013-01-26 02:16:00,
2013-01-25 21:31:00,21.8,19.0,30.08,SW,218,0.0,-999.0,87,-99.99,,,0.00,weatherlink.com 1.10,2013-01-26 02:31:00,
2013-01-25 21:46:00,22.2,19.0,30.08,SW,222,4.0,-999.0,86,-99.99,,,0.00,weatherlink.com 1.10,2013-01-26 02:46:00,
2013-01-25 22:01:00,24.0,20.0,30.09,WSW,255,4.0,-999.0,85,-99.99,,,0.00,weatherlink.com 1.10,2013-01-26 03:01:00,
2013-01-25 22:16:00,25.2,21.0,30.10,WSW,257,8.0,-999.0,83,-99.99,,,0.00,weatherlink.com 1.10,2013-01-26 03:16:00,
2013-01-25 22:31:00,25.7,21.0,30.10,WNW,283,4.0,-999.0,81,-99.99,,,0.00,weatherlink.com 1.10,2013-01-26 03:31:00,
2013-01-25 22:46:00,25.6,20.0,30.11,WNW,284,2.0,-999.0,80,-99.99,,,0.00,weatherlink.com 1.10,2013-01-26 03:46:00,
2013-01-25 23:01:00,25.4,20.0,30.11,WNW,297,2.0,-999.0,79,-99.99,,,0.00,weatherlink.com 1.10,2013-01-26 04:01:00,
2013-01-25 23:16:00,25.3,20.0,30.11,WNW,284,4.0,-999.0,79,-99.99,,,0.00,weatherlink.com 1.10,2013-01-26 04:16:00,
2013-01-25 23:31:00,25.1,19.0,30.11,West,280,4.0,-999.0,79,-99.99,,,0.00,weatherlink.com 1.10,2013-01-26 04:31:00,
2013-01-25 23:46:00,23.1,18.0,30.12,WSW,247,1.0,-999.0,80,-99.99,,,0.00,weatherlink.com 1.10,2013-01-26 04:46:00,